KGMU/GMU METAR and TAF weather

Enter ICAO airport designator
Station Type Date Time Source
KGMU METAR 2020/01/17 21:53 UTC NOAA

KGMU 172153Z 05008KT 10SM OVC110 09/M11 A3057 RMK AO2 SLP355 T00891106


Station Type Date Time Source
KGMU Decoded METAR 2020/01/17 21:53 UTC NOAA

GREENVILLE DOWNTOWN AIRPORT , SC, United States (KGMU) 34-51N 82-21W 315M
Jan 17, 2020 - 04:53 PM EST / 2020.01.17 2153 UTC
Wind: from the NE (050 degrees) at 9 MPH (8 KT):0
Visibility: 10 mile(s):0
Sky conditions: overcast
Temperature: 48.0 F (8.9 C)
Dew Point: 12.9 F (-10.6 C)
Relative Humidity: 23%
Pressure (altimeter): 30.57 in. Hg (1035 hPa)
ob: KGMU 172153Z 05008KT 10SM OVC110 09/M11 A3057 RMK AO2 SLP355 T00891106
cycle: 22

Station Type Date Time Source
KGMU TAF 2020/01/17 18:42 UTC NOAA

TAF KGMU 171739Z 1718/1818 06009KT P6SM SCT120 SCT250
FM180700 06010KT P6SM SCT050 BKN120
FM181400 12003KT P6SM OVC030 PROB30 1815/1817 4SM -RA BR OVC015
FM181700 19003KT 6SM -RA BR OVC015

Example: see airport list